sensor_id;sensor_type;location;lat;lon;timestamp;P1;durP1;ratioP1;P2;durP2;ratioP2
8139;SDS011;4111;50.972;7.072;2023-05-09T00:01:04;14.60;;;13.13;;
8139;SDS011;4111;50.972;7.072;2023-05-09T00:03:32;14.33;;;13.07;;
8139;SDS011;4111;50.972;7.072;2023-05-09T00:05:59;13.87;;;12.57;;
8139;SDS011;4111;50.972;7.072;2023-05-09T00:08:26;14.90;;;13.50;;
8139;SDS011;4111;50.972;7.072;2023-05-09T00:10:53;15.57;;;14.10;;
8139;SDS011;4111;50.972;7.072;2023-05-09T00:13:20;13.87;;;12.67;;
8139;SDS011;4111;50.972;7.072;2023-05-09T00:15:47;14.90;;;13.50;;
8139;SDS011;4111;50.972;7.072;2023-05-09T00:18:13;15.20;;;13.80;;
8139;SDS011;4111;50.972;7.072;2023-05-09T00:20:40;15.87;;;14.37;;
8139;SDS011;4111;50.972;7.072;2023-05-09T00:23:06;15.27;;;13.87;;
8139;SDS011;4111;50.972;7.072;2023-05-09T00:25:33;15.20;;;13.80;;
8139;SDS011;4111;50.972;7.072;2023-05-09T00:27:59;14.47;;;13.17;;
8139;SDS011;4111;50.972;7.072;2023-05-09T00:30:26;15.63;;;14.13;;
8139;SDS011;4111;50.972;7.072;2023-05-09T00:32:52;16.50;;;15.00;;
8139;SDS011;4111;50.972;7.072;2023-05-09T00:35:19;18.50;;;14.73;;
8139;SDS011;4111;50.972;7.072;2023-05-09T00:37:46;15.43;;;13.97;;
8139;SDS011;4111;50.972;7.072;2023-05-09T00:40:12;15.93;;;14.53;;
8139;SDS011;4111;50.972;7.072;2023-05-09T00:42:39;16.73;;;15.10;;
8139;SDS011;4111;50.972;7.072;2023-05-09T00:45:06;15.77;;;14.27;;
8139;SDS011;4111;50.972;7.072;2023-05-09T00:47:33;16.53;;;15.00;;
8139;SDS011;4111;50.972;7.072;2023-05-09T00:50:00;17.50;;;14.30;;
8139;SDS011;4111;50.972;7.072;2023-05-09T00:52:27;15.13;;;13.57;;
8139;SDS011;4111;50.972;7.072;2023-05-09T00:54:54;16.13;;;14.47;;
8139;SDS011;4111;50.972;7.072;2023-05-09T00:57:21;15.33;;;13.87;;
8139;SDS011;4111;50.972;7.072;2023-05-09T00:59:48;16.67;;;14.30;;
8139;SDS011;4111;50.972;7.072;2023-05-09T01:02:18;16.77;;;14.67;;
8139;SDS011;4111;50.972;7.072;2023-05-09T01:04:45;15.37;;;13.87;;
8139;SDS011;4111;50.972;7.072;2023-05-09T01:07:19;17.73;;;14.93;;
8139;SDS011;4111;50.972;7.072;2023-05-09T01:12:58;15.27;;;13.67;;
8139;SDS011;4111;50.972;7.072;2023-05-09T01:15:36;16.37;;;14.07;;
8139;SDS011;4111;50.972;7.072;2023-05-09T01:18:15;14.70;;;13.30;;
8139;SDS011;4111;50.972;7.072;2023-05-09T01:20:56;14.40;;;13.03;;
8139;SDS011;4111;50.972;7.072;2023-05-09T01:32:12;13.83;;;12.53;;
8139;SDS011;4111;50.972;7.072;2023-05-09T01:34:42;16.57;;;14.50;;
8139;SDS011;4111;50.972;7.072;2023-05-09T01:37:11;15.40;;;14.00;;
8139;SDS011;4111;50.972;7.072;2023-05-09T01:39:41;15.00;;;13.60;;
8139;SDS011;4111;50.972;7.072;2023-05-09T01:42:14;15.23;;;13.63;;
8139;SDS011;4111;50.972;7.072;2023-05-09T01:44:43;15.40;;;13.93;;
8139;SDS011;4111;50.972;7.072;2023-05-09T01:47:12;15.50;;;14.00;;
8139;SDS011;4111;50.972;7.072;2023-05-09T01:49:41;15.57;;;13.90;;
8139;SDS011;4111;50.972;7.072;2023-05-09T01:52:11;17.23;;;14.67;;
8139;SDS011;4111;50.972;7.072;2023-05-09T01:54:40;15.07;;;13.57;;
8139;SDS011;4111;50.972;7.072;2023-05-09T01:57:09;15.87;;;14.40;;
8139;SDS011;4111;50.972;7.072;2023-05-09T01:59:40;15.83;;;14.17;;
8139;SDS011;4111;50.972;7.072;2023-05-09T02:02:09;15.00;;;13.40;;
8139;SDS011;4111;50.972;7.072;2023-05-09T02:04:37;16.03;;;14.37;;
8139;SDS011;4111;50.972;7.072;2023-05-09T02:07:06;14.97;;;13.63;;
8139;SDS011;4111;50.972;7.072;2023-05-09T02:09:34;15.33;;;13.83;;
8139;SDS011;4111;50.972;7.072;2023-05-09T02:12:01;16.40;;;14.80;;
8139;SDS011;4111;50.972;7.072;2023-05-09T02:14:29;15.80;;;14.30;;
8139;SDS011;4111;50.972;7.072;2023-05-09T02:16:57;16.77;;;15.17;;
8139;SDS011;4111;50.972;7.072;2023-05-09T02:19:32;16.97;;;14.57;;
8139;SDS011;4111;50.972;7.072;2023-05-09T02:22:00;15.97;;;14.47;;
8139;SDS011;4111;50.972;7.072;2023-05-09T02:24:27;16.10;;;14.40;;
8139;SDS011;4111;50.972;7.072;2023-05-09T02:26:54;16.00;;;14.40;;
8139;SDS011;4111;50.972;7.072;2023-05-09T02:29:22;17.10;;;15.20;;
8139;SDS011;4111;50.972;7.072;2023-05-09T02:31:55;16.80;;;15.20;;
8139;SDS011;4111;50.972;7.072;2023-05-09T02:34:25;16.00;;;14.50;;
8139;SDS011;4111;50.972;7.072;2023-05-09T02:36:52;17.00;;;15.40;;
8139;SDS011;4111;50.972;7.072;2023-05-09T02:39:18;16.03;;;14.40;;
8139;SDS011;4111;50.972;7.072;2023-05-09T02:41:46;16.70;;;15.20;;
8139;SDS011;4111;50.972;7.072;2023-05-09T02:44:14;16.30;;;14.90;;
8139;SDS011;4111;50.972;7.072;2023-05-09T02:46:40;16.50;;;14.80;;
8139;SDS011;4111;50.972;7.072;2023-05-09T02:49:07;16.00;;;14.60;;
8139;SDS011;4111;50.972;7.072;2023-05-09T02:51:35;16.23;;;14.63;;
8139;SDS011;4111;50.972;7.072;2023-05-09T02:54:01;16.90;;;14.83;;
8139;SDS011;4111;50.972;7.072;2023-05-09T02:56:28;16.97;;;15.47;;
8139;SDS011;4111;50.972;7.072;2023-05-09T02:58:54;16.53;;;15.03;;
8139;SDS011;4111;50.972;7.072;2023-05-09T03:01:21;16.23;;;14.70;;
8139;SDS011;4111;50.972;7.072;2023-05-09T03:03:48;16.90;;;15.40;;
8139;SDS011;4111;50.972;7.072;2023-05-09T03:06:14;16.40;;;14.90;;
8139;SDS011;4111;50.972;7.072;2023-05-09T03:08:41;17.43;;;15.30;;
8139;SDS011;4111;50.972;7.072;2023-05-09T03:11:07;17.27;;;15.67;;
8139;SDS011;4111;50.972;7.072;2023-05-09T03:13:34;17.03;;;15.03;;
8139;SDS011;4111;50.972;7.072;2023-05-09T03:16:00;15.90;;;14.40;;
8139;SDS011;4111;50.972;7.072;2023-05-09T03:18:27;16.50;;;14.93;;
8139;SDS011;4111;50.972;7.072;2023-05-09T03:20:53;16.80;;;15.20;;
8139;SDS011;4111;50.972;7.072;2023-05-09T03:23:19;17.27;;;15.57;;
8139;SDS011;4111;50.972;7.072;2023-05-09T03:25:46;17.60;;;14.97;;
8139;SDS011;4111;50.972;7.072;2023-05-09T03:28:13;17.63;;;15.00;;
8139;SDS011;4111;50.972;7.072;2023-05-09T03:30:39;19.60;;;15.73;;
8139;SDS011;4111;50.972;7.072;2023-05-09T03:33:06;16.93;;;14.83;;
8139;SDS011;4111;50.972;7.072;2023-05-09T03:35:32;16.60;;;15.00;;
8139;SDS011;4111;50.972;7.072;2023-05-09T03:37:59;17.00;;;15.50;;
8139;SDS011;4111;50.972;7.072;2023-05-09T03:40:25;17.13;;;15.43;;
8139;SDS011;4111;50.972;7.072;2023-05-09T03:42:52;16.83;;;15.33;;
8139;SDS011;4111;50.972;7.072;2023-05-09T03:45:18;16.93;;;15.33;;
8139;SDS011;4111;50.972;7.072;2023-05-09T03:47:45;17.37;;;15.37;;
8139;SDS011;4111;50.972;7.072;2023-05-09T03:50:11;16.33;;;14.87;;
8139;SDS011;4111;50.972;7.072;2023-05-09T03:52:38;16.40;;;14.90;;
8139;SDS011;4111;50.972;7.072;2023-05-09T03:55:04;16.43;;;14.83;;
8139;SDS011;4111;50.972;7.072;2023-05-09T03:57:31;16.93;;;15.43;;
8139;SDS011;4111;50.972;7.072;2023-05-09T04:00:00;18.33;;;14.93;;
8139;SDS011;4111;50.972;7.072;2023-05-09T04:02:26;16.70;;;15.20;;
8139;SDS011;4111;50.972;7.072;2023-05-09T04:04:53;16.93;;;15.00;;
8139;SDS011;4111;50.972;7.072;2023-05-09T04:07:20;17.10;;;15.43;;
8139;SDS011;4111;50.972;7.072;2023-05-09T04:09:46;17.27;;;15.43;;
8139;SDS011;4111;50.972;7.072;2023-05-09T04:12:14;17.57;;;15.53;;
8139;SDS011;4111;50.972;7.072;2023-05-09T04:14:41;17.10;;;15.40;;
8139;SDS011;4111;50.972;7.072;2023-05-09T04:17:08;18.37;;;16.60;;
8139;SDS011;4111;50.972;7.072;2023-05-09T04:19:34;17.10;;;15.47;;
8139;SDS011;4111;50.972;7.072;2023-05-09T04:22:01;16.63;;;15.13;;
8139;SDS011;4111;50.972;7.072;2023-05-09T04:24:27;19.10;;;15.70;;
8139;SDS011;4111;50.972;7.072;2023-05-09T04:26:54;17.47;;;15.43;;
8139;SDS011;4111;50.972;7.072;2023-05-09T04:29:20;16.23;;;14.80;;
8139;SDS011;4111;50.972;7.072;2023-05-09T04:31:47;17.03;;;15.27;;
8139;SDS011;4111;50.972;7.072;2023-05-09T04:34:13;17.30;;;15.70;;
8139;SDS011;4111;50.972;7.072;2023-05-09T04:36:40;17.13;;;15.53;;
8139;SDS011;4111;50.972;7.072;2023-05-09T04:39:07;17.13;;;15.53;;
8139;SDS011;4111;50.972;7.072;2023-05-09T04:41:33;17.53;;;15.83;;
8139;SDS011;4111;50.972;7.072;2023-05-09T04:44:00;17.80;;;16.10;;
8139;SDS011;4111;50.972;7.072;2023-05-09T04:46:27;17.90;;;16.30;;
8139;SDS011;4111;50.972;7.072;2023-05-09T04:48:53;18.00;;;16.20;;
8139;SDS011;4111;50.972;7.072;2023-05-09T04:51:20;17.87;;;15.93;;
8139;SDS011;4111;50.972;7.072;2023-05-09T04:53:47;18.23;;;16.37;;
8139;SDS011;4111;50.972;7.072;2023-05-09T04:56:13;18.63;;;15.90;;
8139;SDS011;4111;50.972;7.072;2023-05-09T04:58:40;17.53;;;15.93;;
8139;SDS011;4111;50.972;7.072;2023-05-09T05:01:06;17.43;;;15.83;;
8139;SDS011;4111;50.972;7.072;2023-05-09T05:03:33;18.00;;;16.20;;
8139;SDS011;4111;50.972;7.072;2023-05-09T05:05:59;17.43;;;15.63;;
8139;SDS011;4111;50.972;7.072;2023-05-09T05:08:26;17.83;;;16.10;;
8139;SDS011;4111;50.972;7.072;2023-05-09T05:10:52;17.27;;;15.57;;
8139;SDS011;4111;50.972;7.072;2023-05-09T05:13:19;18.40;;;16.47;;
8139;SDS011;4111;50.972;7.072;2023-05-09T05:15:46;17.93;;;16.17;;
8139;SDS011;4111;50.972;7.072;2023-05-09T05:18:13;17.27;;;15.63;;
8139;SDS011;4111;50.972;7.072;2023-05-09T05:20:40;16.43;;;14.77;;
8139;SDS011;4111;50.972;7.072;2023-05-09T05:23:07;24.73;;;14.20;;
8139;SDS011;4111;50.972;7.072;2023-05-09T05:25:34;15.20;;;13.63;;
8139;SDS011;4111;50.972;7.072;2023-05-09T05:28:01;16.20;;;14.70;;
8139;SDS011;4111;50.972;7.072;2023-05-09T05:30:27;17.20;;;14.93;;
8139;SDS011;4111;50.972;7.072;2023-05-09T05:32:54;16.00;;;14.33;;
8139;SDS011;4111;50.972;7.072;2023-05-09T05:35:21;14.93;;;13.63;;
8139;SDS011;4111;50.972;7.072;2023-05-09T05:37:48;16.07;;;14.57;;
8139;SDS011;4111;50.972;7.072;2023-05-09T05:40:15;16.67;;;15.00;;
8139;SDS011;4111;50.972;7.072;2023-05-09T05:42:41;16.20;;;14.47;;
8139;SDS011;4111;50.972;7.072;2023-05-09T05:45:09;20.47;;;15.57;;
8139;SDS011;4111;50.972;7.072;2023-05-09T05:47:36;16.37;;;14.70;;
8139;SDS011;4111;50.972;7.072;2023-05-09T05:50:03;18.20;;;14.30;;
8139;SDS011;4111;50.972;7.072;2023-05-09T05:52:32;16.50;;;14.77;;
8139;SDS011;4111;50.972;7.072;2023-05-09T05:54:58;16.87;;;15.17;;
8139;SDS011;4111;50.972;7.072;2023-05-09T05:57:25;17.07;;;15.47;;
8139;SDS011;4111;50.972;7.072;2023-05-09T05:59:51;15.33;;;13.83;;
8139;SDS011;4111;50.972;7.072;2023-05-09T06:02:18;17.83;;;14.00;;
8139;SDS011;4111;50.972;7.072;2023-05-09T06:04:44;16.30;;;14.13;;
8139;SDS011;4111;50.972;7.072;2023-05-09T06:07:11;15.50;;;13.90;;
8139;SDS011;4111;50.972;7.072;2023-05-09T06:09:38;15.47;;;14.07;;
8139;SDS011;4111;50.972;7.072;2023-05-09T06:12:05;14.43;;;13.13;;
8139;SDS011;4111;50.972;7.072;2023-05-09T06:14:32;18.17;;;13.87;;
8139;SDS011;4111;50.972;7.072;2023-05-09T06:16:58;15.40;;;13.60;;
8139;SDS011;4111;50.972;7.072;2023-05-09T06:19:25;14.93;;;13.53;;
8139;SDS011;4111;50.972;7.072;2023-05-09T06:21:53;16.10;;;13.83;;
8139;SDS011;4111;50.972;7.072;2023-05-09T06:24:19;14.07;;;12.87;;
8139;SDS011;4111;50.972;7.072;2023-05-09T06:27:01;16.07;;;13.43;;
8139;SDS011;4111;50.972;7.072;2023-05-09T06:29:27;14.60;;;13.30;;
8139;SDS011;4111;50.972;7.072;2023-05-09T06:31:54;15.40;;;13.37;;
8139;SDS011;4111;50.972;7.072;2023-05-09T06:34:20;14.17;;;12.77;;
8139;SDS011;4111;50.972;7.072;2023-05-09T06:36:47;14.80;;;13.20;;
8139;SDS011;4111;50.972;7.072;2023-05-09T06:39:13;14.97;;;13.10;;
8139;SDS011;4111;50.972;7.072;2023-05-09T06:41:39;14.20;;;12.83;;
8139;SDS011;4111;50.972;7.072;2023-05-09T06:44:06;14.17;;;12.77;;
8139;SDS011;4111;50.972;7.072;2023-05-09T06:46:32;13.87;;;12.53;;
8139;SDS011;4111;50.972;7.072;2023-05-09T06:48:59;13.90;;;11.97;;
8139;SDS011;4111;50.972;7.072;2023-05-09T06:51:27;12.97;;;11.87;;
8139;SDS011;4111;50.972;7.072;2023-05-09T06:53:54;14.13;;;10.87;;
8139;SDS011;4111;50.972;7.072;2023-05-09T06:56:20;13.60;;;11.93;;
8139;SDS011;4111;50.972;7.072;2023-05-09T06:58:48;14.77;;;13.27;;
8139;SDS011;4111;50.972;7.072;2023-05-09T07:01:14;13.03;;;11.20;;
8139;SDS011;4111;50.972;7.072;2023-05-09T07:03:41;13.07;;;11.80;;
8139;SDS011;4111;50.972;7.072;2023-05-09T07:06:07;12.27;;;11.20;;
8139;SDS011;4111;50.972;7.072;2023-05-09T07:08:34;13.33;;;11.93;;
8139;SDS011;4111;50.972;7.072;2023-05-09T07:11:04;13.73;;;12.53;;
8139;SDS011;4111;50.972;7.072;2023-05-09T07:13:30;13.20;;;11.90;;
8139;SDS011;4111;50.972;7.072;2023-05-09T07:15:57;16.80;;;11.67;;
8139;SDS011;4111;50.972;7.072;2023-05-09T07:18:23;12.13;;;11.00;;
8139;SDS011;4111;50.972;7.072;2023-05-09T07:20:50;12.07;;;10.97;;
8139;SDS011;4111;50.972;7.072;2023-05-09T07:23:16;12.47;;;11.37;;
8139;SDS011;4111;50.972;7.072;2023-05-09T07:25:43;12.17;;;10.93;;
8139;SDS011;4111;50.972;7.072;2023-05-09T07:28:10;10.87;;;9.97;;
8139;SDS011;4111;50.972;7.072;2023-05-09T07:30:38;14.63;;;10.43;;
8139;SDS011;4111;50.972;7.072;2023-05-09T07:33:04;11.90;;;9.30;;
8139;SDS011;4111;50.972;7.072;2023-05-09T07:35:31;10.23;;;9.23;;
8139;SDS011;4111;50.972;7.072;2023-05-09T07:37:58;11.97;;;9.60;;
8139;SDS011;4111;50.972;7.072;2023-05-09T07:40:24;9.73;;;8.93;;
8139;SDS011;4111;50.972;7.072;2023-05-09T07:42:51;10.13;;;9.13;;
8139;SDS011;4111;50.972;7.072;2023-05-09T07:45:20;10.10;;;8.60;;
8139;SDS011;4111;50.972;7.072;2023-05-09T07:47:49;8.27;;;7.40;;
8139;SDS011;4111;50.972;7.072;2023-05-09T07:50:16;7.93;;;7.20;;
8139;SDS011;4111;50.972;7.072;2023-05-09T07:52:42;9.37;;;6.40;;
8139;SDS011;4111;50.972;7.072;2023-05-09T07:55:08;7.67;;;5.87;;
8139;SDS011;4111;50.972;7.072;2023-05-09T07:57:35;6.33;;;5.83;;
8139;SDS011;4111;50.972;7.072;2023-05-09T08:00:02;8.37;;;5.63;;
8139;SDS011;4111;50.972;7.072;2023-05-09T08:02:28;11.57;;;6.03;;
8139;SDS011;4111;50.972;7.072;2023-05-09T08:04:55;8.67;;;5.93;;
8139;SDS011;4111;50.972;7.072;2023-05-09T08:07:21;6.20;;;5.70;;
8139;SDS011;4111;50.972;7.072;2023-05-09T08:09:48;6.83;;;5.70;;
8139;SDS011;4111;50.972;7.072;2023-05-09T08:12:14;5.60;;;5.10;;
8139;SDS011;4111;50.972;7.072;2023-05-09T08:14:41;5.53;;;5.13;;
8139;SDS011;4111;50.972;7.072;2023-05-09T08:17:07;6.67;;;4.93;;
8139;SDS011;4111;50.972;7.072;2023-05-09T08:19:33;5.23;;;4.73;;
8139;SDS011;4111;50.972;7.072;2023-05-09T08:22:00;5.93;;;5.20;;
8139;SDS011;4111;50.972;7.072;2023-05-09T08:24:26;4.87;;;4.23;;
8139;SDS011;4111;50.972;7.072;2023-05-09T08:26:53;5.83;;;5.20;;
8139;SDS011;4111;50.972;7.072;2023-05-09T08:29:19;6.53;;;4.80;;
8139;SDS011;4111;50.972;7.072;2023-05-09T08:31:46;5.23;;;4.83;;
8139;SDS011;4111;50.972;7.072;2023-05-09T08:34:12;5.73;;;5.03;;
8139;SDS011;4111;50.972;7.072;2023-05-09T08:36:39;5.33;;;3.90;;
8139;SDS011;4111;50.972;7.072;2023-05-09T08:39:06;3.73;;;3.37;;
8139;SDS011;4111;50.972;7.072;2023-05-09T08:41:33;3.57;;;3.30;;
8139;SDS011;4111;50.972;7.072;2023-05-09T08:44:01;4.40;;;3.43;;
8139;SDS011;4111;50.972;7.072;2023-05-09T08:46:30;5.23;;;3.20;;
8139;SDS011;4111;50.972;7.072;2023-05-09T08:49:04;2.97;;;2.87;;
8139;SDS011;4111;50.972;7.072;2023-05-09T08:51:34;4.00;;;2.37;;
8139;SDS011;4111;50.972;7.072;2023-05-09T08:54:01;3.70;;;2.23;;
8139;SDS011;4111;50.972;7.072;2023-05-09T08:56:28;3.40;;;2.57;;
8139;SDS011;4111;50.972;7.072;2023-05-09T08:58:55;3.43;;;2.77;;
8139;SDS011;4111;50.972;7.072;2023-05-09T09:01:22;2.53;;;2.17;;
8139;SDS011;4111;50.972;7.072;2023-05-09T09:03:52;2.70;;;2.10;;
8139;SDS011;4111;50.972;7.072;2023-05-09T09:06:19;4.07;;;2.33;;
8139;SDS011;4111;50.972;7.072;2023-05-09T09:08:46;3.70;;;2.00;;
8139;SDS011;4111;50.972;7.072;2023-05-09T09:11:14;3.13;;;2.20;;
8139;SDS011;4111;50.972;7.072;2023-05-09T09:13:42;1.80;;;1.70;;
8139;SDS011;4111;50.972;7.072;2023-05-09T09:16:09;2.37;;;1.90;;
8139;SDS011;4111;50.972;7.072;2023-05-09T09:18:43;2.97;;;2.03;;
8139;SDS011;4111;50.972;7.072;2023-05-09T09:21:10;2.87;;;2.00;;
8139;SDS011;4111;50.972;7.072;2023-05-09T09:23:39;2.10;;;1.90;;
8139;SDS011;4111;50.972;7.072;2023-05-09T09:26:08;1.90;;;1.70;;
8139;SDS011;4111;50.972;7.072;2023-05-09T09:28:34;2.73;;;1.87;;
8139;SDS011;4111;50.972;7.072;2023-05-09T09:31:01;2.70;;;1.83;;
8139;SDS011;4111;50.972;7.072;2023-05-09T09:33:28;3.10;;;2.90;;
8139;SDS011;4111;50.972;7.072;2023-05-09T09:35:55;3.60;;;3.37;;
8139;SDS011;4111;50.972;7.072;2023-05-09T09:38:22;3.60;;;2.90;;
8139;SDS011;4111;50.972;7.072;2023-05-09T09:40:55;4.93;;;3.20;;
8139;SDS011;4111;50.972;7.072;2023-05-09T09:43:28;3.17;;;2.97;;
8139;SDS011;4111;50.972;7.072;2023-05-09T09:45:56;3.60;;;2.97;;
8139;SDS011;4111;50.972;7.072;2023-05-09T09:48:27;3.07;;;2.80;;
8139;SDS011;4111;50.972;7.072;2023-05-09T09:50:57;3.10;;;2.80;;
8139;SDS011;4111;50.972;7.072;2023-05-09T09:53:29;3.03;;;2.70;;
8139;SDS011;4111;50.972;7.072;2023-05-09T09:55:56;5.73;;;2.70;;
8139;SDS011;4111;50.972;7.072;2023-05-09T09:58:22;3.40;;;2.60;;
8139;SDS011;4111;50.972;7.072;2023-05-09T10:01:10;4.07;;;3.00;;
8139;SDS011;4111;50.972;7.072;2023-05-09T10:03:40;3.50;;;2.80;;
8139;SDS011;4111;50.972;7.072;2023-05-09T10:06:12;4.30;;;2.90;;
8139;SDS011;4111;50.972;7.072;2023-05-09T10:08:40;3.70;;;2.90;;
8139;SDS011;4111;50.972;7.072;2023-05-09T10:11:07;5.43;;;2.80;;
8139;SDS011;4111;50.972;7.072;2023-05-09T10:13:34;3.40;;;3.10;;
8139;SDS011;4111;50.972;7.072;2023-05-09T10:16:02;3.33;;;2.90;;
8139;SDS011;4111;50.972;7.072;2023-05-09T10:18:30;4.70;;;3.10;;
8139;SDS011;4111;50.972;7.072;2023-05-09T10:20:59;5.03;;;3.20;;
8139;SDS011;4111;50.972;7.072;2023-05-09T10:23:32;2.90;;;2.67;;
8139;SDS011;4111;50.972;7.072;2023-05-09T10:28:37;4.47;;;3.30;;
8139;SDS011;4111;50.972;7.072;2023-05-09T10:31:25;4.55;;;3.00;;
8139;SDS011;4111;50.972;7.072;2023-05-09T10:33:57;4.97;;;3.00;;
8139;SDS011;4111;50.972;7.072;2023-05-09T10:36:26;3.30;;;3.00;;
8139;SDS011;4111;50.972;7.072;2023-05-09T10:38:53;4.47;;;3.40;;
8139;SDS011;4111;50.972;7.072;2023-05-09T10:41:21;3.20;;;2.90;;
8139;SDS011;4111;50.972;7.072;2023-05-09T10:43:48;4.43;;;2.87;;
8139;SDS011;4111;50.972;7.072;2023-05-09T10:46:15;4.70;;;3.00;;
8139;SDS011;4111;50.972;7.072;2023-05-09T10:48:42;2.60;;;2.40;;
8139;SDS011;4111;50.972;7.072;2023-05-09T10:51:10;3.23;;;2.70;;
8139;SDS011;4111;50.972;7.072;2023-05-09T10:53:41;2.27;;;2.07;;
8139;SDS011;4111;50.972;7.072;2023-05-09T10:56:21;2.43;;;2.20;;
8139;SDS011;4111;50.972;7.072;2023-05-09T10:59:05;2.13;;;1.90;;
8139;SDS011;4111;50.972;7.072;2023-05-09T11:01:55;2.10;;;2.00;;
8139;SDS011;4111;50.972;7.072;2023-05-09T11:04:26;3.07;;;1.97;;
8139;SDS011;4111;50.972;7.072;2023-05-09T11:06:52;2.90;;;2.20;;
8139;SDS011;4111;50.972;7.072;2023-05-09T11:09:34;3.30;;;2.30;;
8139;SDS011;4111;50.972;7.072;2023-05-09T11:14:31;2.73;;;2.53;;
8139;SDS011;4111;50.972;7.072;2023-05-09T11:17:07;2.28;;;2.13;;
8139;SDS011;4111;50.972;7.072;2023-05-09T11:22:12;4.83;;;2.20;;
8139;SDS011;4111;50.972;7.072;2023-05-09T11:25:08;3.78;;;2.28;;
8139;SDS011;4111;50.972;7.072;2023-05-09T11:27:45;2.60;;;2.40;;
8139;SDS011;4111;50.972;7.072;2023-05-09T11:30:14;2.47;;;2.27;;
8139;SDS011;4111;50.972;7.072;2023-05-09T11:32:52;6.07;;;2.50;;
8139;SDS011;4111;50.972;7.072;2023-05-09T11:35:24;3.67;;;2.50;;
8139;SDS011;4111;50.972;7.072;2023-05-09T11:37:57;2.45;;;2.35;;
8139;SDS011;4111;50.972;7.072;2023-05-09T11:40:26;2.43;;;2.33;;
8139;SDS011;4111;50.972;7.072;2023-05-09T11:42:54;2.20;;;2.10;;
8139;SDS011;4111;50.972;7.072;2023-05-09T11:45:25;2.58;;;2.38;;
8139;SDS011;4111;50.972;7.072;2023-05-09T11:47:55;4.15;;;2.40;;
8139;SDS011;4111;50.972;7.072;2023-05-09T11:50:25;4.63;;;2.30;;
8139;SDS011;4111;50.972;7.072;2023-05-09T11:52:52;5.10;;;2.53;;
8139;SDS011;4111;50.972;7.072;2023-05-09T11:55:20;4.43;;;2.30;;
8139;SDS011;4111;50.972;7.072;2023-05-09T11:57:48;2.35;;;2.15;;
8139;SDS011;4111;50.972;7.072;2023-05-09T12:00:17;4.40;;;2.30;;
8139;SDS011;4111;50.972;7.072;2023-05-09T12:02:45;3.00;;;2.40;;
8139;SDS011;4111;50.972;7.072;2023-05-09T12:05:14;5.05;;;2.33;;
8139;SDS011;4111;50.972;7.072;2023-05-09T12:07:42;2.45;;;2.22;;
8139;SDS011;4111;50.972;7.072;2023-05-09T12:10:10;3.92;;;2.38;;
8139;SDS011;4111;50.972;7.072;2023-05-09T12:12:42;3.53;;;2.60;;
8139;SDS011;4111;50.972;7.072;2023-05-09T12:15:10;5.00;;;2.70;;
8139;SDS011;4111;50.972;7.072;2023-05-09T12:17:40;3.80;;;2.40;;
8139;SDS011;4111;50.972;7.072;2023-05-09T12:20:08;4.40;;;2.88;;
8139;SDS011;4111;50.972;7.072;2023-05-09T12:22:35;2.97;;;2.40;;
8139;SDS011;4111;50.972;7.072;2023-05-09T12:25:06;4.82;;;2.58;;
8139;SDS011;4111;50.972;7.072;2023-05-09T12:27:35;3.05;;;2.60;;
8139;SDS011;4111;50.972;7.072;2023-05-09T12:30:03;3.50;;;2.33;;
8139;SDS011;4111;50.972;7.072;2023-05-09T12:32:33;5.68;;;2.83;;
8139;SDS011;4111;50.972;7.072;2023-05-09T12:35:01;10.32;;;2.72;;
8139;SDS011;4111;50.972;7.072;2023-05-09T12:37:29;2.83;;;2.25;;
8139;SDS011;4111;50.972;7.072;2023-05-09T12:40:03;6.68;;;2.78;;
8139;SDS011;4111;50.972;7.072;2023-05-09T12:42:32;5.70;;;2.25;;
8139;SDS011;4111;50.972;7.072;2023-05-09T12:45:01;3.67;;;2.30;;
8139;SDS011;4111;50.972;7.072;2023-05-09T12:47:28;3.42;;;2.00;;
8139;SDS011;4111;50.972;7.072;2023-05-09T12:49:57;3.00;;;2.20;;
8139;SDS011;4111;50.972;7.072;2023-05-09T12:52:24;2.60;;;2.40;;
8139;SDS011;4111;50.972;7.072;2023-05-09T12:54:51;3.45;;;2.00;;
8139;SDS011;4111;50.972;7.072;2023-05-09T12:57:19;4.23;;;3.10;;
8139;SDS011;4111;50.972;7.072;2023-05-09T12:59:49;2.20;;;2.00;;
8139;SDS011;4111;50.972;7.072;2023-05-09T13:02:16;5.43;;;2.40;;
8139;SDS011;4111;50.972;7.072;2023-05-09T13:04:43;5.30;;;2.25;;
8139;SDS011;4111;50.972;7.072;2023-05-09T13:07:09;2.95;;;2.15;;
8139;SDS011;4111;50.972;7.072;2023-05-09T13:09:36;1.90;;;1.70;;
8139;SDS011;4111;50.972;7.072;2023-05-09T13:12:19;2.45;;;1.92;;
8139;SDS011;4111;50.972;7.072;2023-05-09T13:14:46;2.60;;;2.10;;
8139;SDS011;4111;50.972;7.072;2023-05-09T13:17:12;4.97;;;2.10;;
8139;SDS011;4111;50.972;7.072;2023-05-09T13:19:39;4.63;;;2.03;;
8139;SDS011;4111;50.972;7.072;2023-05-09T13:22:05;2.07;;;1.97;;
8139;SDS011;4111;50.972;7.072;2023-05-09T13:24:31;2.13;;;1.77;;
8139;SDS011;4111;50.972;7.072;2023-05-09T13:26:58;1.80;;;1.70;;
8139;SDS011;4111;50.972;7.072;2023-05-09T13:29:24;2.43;;;2.20;;
8139;SDS011;4111;50.972;7.072;2023-05-09T13:31:51;2.60;;;2.13;;
8139;SDS011;4111;50.972;7.072;2023-05-09T13:34:17;2.28;;;2.08;;
8139;SDS011;4111;50.972;7.072;2023-05-09T13:36:44;2.30;;;2.20;;
8139;SDS011;4111;50.972;7.072;2023-05-09T13:39:10;2.20;;;2.00;;
8139;SDS011;4111;50.972;7.072;2023-05-09T13:41:37;2.50;;;2.30;;
8139;SDS011;4111;50.972;7.072;2023-05-09T13:44:03;5.77;;;2.13;;
8139;SDS011;4111;50.972;7.072;2023-05-09T13:46:29;3.25;;;2.20;;
8139;SDS011;4111;50.972;7.072;2023-05-09T13:48:56;3.15;;;1.98;;
8139;SDS011;4111;50.972;7.072;2023-05-09T13:51:22;2.53;;;2.10;;
8139;SDS011;4111;50.972;7.072;2023-05-09T13:53:49;6.90;;;1.97;;
8139;SDS011;4111;50.972;7.072;2023-05-09T13:56:15;2.57;;;1.83;;
8139;SDS011;4111;50.972;7.072;2023-05-09T13:58:42;4.20;;;1.70;;
8139;SDS011;4111;50.972;7.072;2023-05-09T14:01:08;4.85;;;2.42;;
8139;SDS011;4111;50.972;7.072;2023-05-09T14:03:35;2.03;;;1.70;;
8139;SDS011;4111;50.972;7.072;2023-05-09T14:06:01;2.88;;;1.80;;
8139;SDS011;4111;50.972;7.072;2023-05-09T14:08:29;2.40;;;1.80;;
8139;SDS011;4111;50.972;7.072;2023-05-09T14:10:55;2.67;;;1.90;;
8139;SDS011;4111;50.972;7.072;2023-05-09T14:13:22;2.47;;;2.08;;
8139;SDS011;4111;50.972;7.072;2023-05-09T14:15:49;3.57;;;1.83;;
8139;SDS011;4111;50.972;7.072;2023-05-09T14:18:15;2.45;;;2.00;;
8139;SDS011;4111;50.972;7.072;2023-05-09T14:20:46;3.38;;;1.67;;
8139;SDS011;4111;50.972;7.072;2023-05-09T14:23:12;3.70;;;2.13;;
8139;SDS011;4111;50.972;7.072;2023-05-09T14:25:39;6.00;;;2.00;;
8139;SDS011;4111;50.972;7.072;2023-05-09T14:28:05;4.30;;;1.73;;
8139;SDS011;4111;50.972;7.072;2023-05-09T14:30:34;1.90;;;1.80;;
8139;SDS011;4111;50.972;7.072;2023-05-09T14:33:01;1.73;;;1.63;;
8139;SDS011;4111;50.972;7.072;2023-05-09T14:35:27;3.90;;;1.85;;
8139;SDS011;4111;50.972;7.072;2023-05-09T14:37:57;2.25;;;1.83;;
8139;SDS011;4111;50.972;7.072;2023-05-09T14:40:23;3.33;;;2.25;;
8139;SDS011;4111;50.972;7.072;2023-05-09T14:42:50;7.22;;;1.73;;
8139;SDS011;4111;50.972;7.072;2023-05-09T14:45:16;7.83;;;4.97;;
8139;SDS011;4111;50.972;7.072;2023-05-09T14:47:43;10.80;;;6.10;;
8139;SDS011;4111;50.972;7.072;2023-05-09T14:50:09;6.80;;;6.20;;
8139;SDS011;4111;50.972;7.072;2023-05-09T14:52:41;6.93;;;6.10;;
8139;SDS011;4111;50.972;7.072;2023-05-09T14:55:08;7.37;;;5.03;;
8139;SDS011;4111;50.972;7.072;2023-05-09T14:57:35;6.13;;;4.43;;
8139;SDS011;4111;50.972;7.072;2023-05-09T15:00:02;4.23;;;3.30;;
8139;SDS011;4111;50.972;7.072;2023-05-09T15:02:46;3.30;;;2.90;;
8139;SDS011;4111;50.972;7.072;2023-05-09T15:05:12;3.67;;;2.97;;
8139;SDS011;4111;50.972;7.072;2023-05-09T15:07:39;6.13;;;3.00;;
8139;SDS011;4111;50.972;7.072;2023-05-09T15:10:05;3.97;;;3.10;;
8139;SDS011;4111;50.972;7.072;2023-05-09T15:12:32;3.87;;;3.20;;
8139;SDS011;4111;50.972;7.072;2023-05-09T15:15:14;3.60;;;3.30;;
8139;SDS011;4111;50.972;7.072;2023-05-09T15:17:43;7.53;;;3.83;;
8139;SDS011;4111;50.972;7.072;2023-05-09T15:20:10;3.60;;;3.30;;
8139;SDS011;4111;50.972;7.072;2023-05-09T15:22:37;4.00;;;3.70;;
8139;SDS011;4111;50.972;7.072;2023-05-09T15:25:03;3.93;;;3.20;;
8139;SDS011;4111;50.972;7.072;2023-05-09T15:27:31;4.27;;;3.63;;